Time;durP1;ratioP1;P1;durP2;ratioP2;P2;SDS_P1;SDS_P2;PMS_P1;PMS_P2;Temp;Humidity;BMP_temperature;BMP_pressure;BME280_temperature;BME280_humidity;BME280_pressure;Samples;Min_cycle;Max_cycle;Signal;HPM_P1;HPM_P2
2023/05/04 00:01:43;;;;;;;1999.90;999.90;;;11.90;99.90;;;;;;5012069;28;20183;-69
2023/05/04 00:04:08;;;;;;;1999.90;999.90;;;11.80;99.90;;;;;;5012136;28;20196;-70
2023/05/04 00:06:34;;;;;;;1999.90;999.90;;;11.70;99.90;;;;;;5012228;28;20175;-69
2023/05/04 00:09:00;;;;;;;1999.90;999.90;;;11.70;99.90;;;;;;5012071;28;20543;-69
2023/05/04 00:11:25;;;;;;;1999.90;999.90;;;11.70;99.90;;;;;;5011800;28;20192;-69
2023/05/04 00:13:52;;;;;;;1999.90;999.90;;;11.70;99.90;;;;;;5013896;28;20277;-69
2023/05/04 00:16:17;;;;;;;1999.90;999.90;;;11.70;99.90;;;;;;5016071;28;20303;-69
2023/05/04 00:18:43;;;;;;;1999.90;999.90;;;11.60;99.90;;;;;;5016123;28;20487;-69
2023/05/04 00:21:08;;;;;;;1999.90;999.90;;;11.60;99.90;;;;;;5015829;28;20278;-69
2023/05/04 00:23:34;;;;;;;1999.90;999.90;;;11.60;99.90;;;;;;5015933;28;20190;-69
2023/05/04 00:26:00;;;;;;;1999.90;999.90;;;11.50;99.90;;;;;;5015961;28;20316;-68
2023/05/04 00:28:26;;;;;;;1999.90;999.90;;;11.60;99.90;;;;;;5015849;28;20171;-68
2023/05/04 00:30:55;;;;;;;1999.90;999.90;;;11.50;99.90;;;;;;5015767;28;20412;-69
2023/05/04 00:33:21;;;;;;;1999.90;999.90;;;11.60;99.90;;;;;;5015718;28;20198;-69
2023/05/04 00:35:46;;;;;;;1999.90;999.90;;;11.40;99.90;;;;;;5016102;28;20403;-69
2023/05/04 00:38:12;;;;;;;1999.90;999.90;;;11.40;99.90;;;;;;5015720;28;20224;-69
2023/05/04 00:40:39;;;;;;;1999.90;999.90;;;11.40;99.90;;;;;;5015711;28;20167;-69
2023/05/04 00:43:04;;;;;;;1999.90;999.90;;;11.40;99.90;;;;;;5015312;28;20185;-69
2023/05/04 00:45:30;;;;;;;1999.90;999.90;;;11.30;99.90;;;;;;5015843;28;20922;-68
2023/05/04 00:47:57;;;;;;;1999.90;999.90;;;11.20;99.90;;;;;;5015935;28;20728;-68
2023/05/04 00:50:24;;;;;;;1999.90;999.90;;;11.20;99.90;;;;;;5015581;28;20786;-68
2023/05/04 00:52:51;;;;;;;1999.90;999.90;;;11.10;99.90;;;;;;5015121;28;21032;-69
2023/05/04 00:55:17;;;;;;;1999.90;999.90;;;11.10;99.90;;;;;;5015368;28;20916;-69
2023/05/04 00:57:43;;;;;;;1999.90;999.90;;;11.00;99.90;;;;;;5015370;28;20467;-69
2023/05/04 01:00:12;;;;;;;1999.90;999.90;;;11.00;99.90;;;;;;5015369;28;20162;-69
2023/05/04 01:02:38;;;;;;;1999.90;999.90;;;11.00;99.90;;;;;;5015132;28;20177;-69
2023/05/04 01:05:05;;;;;;;1999.90;999.90;;;10.90;99.90;;;;;;5015171;28;20502;-69
2023/05/04 01:07:30;;;;;;;1999.90;999.90;;;10.90;99.90;;;;;;5015108;28;20463;-70
2023/05/04 01:10:09;;;;;;;1999.90;999.90;;;10.90;99.90;;;;;;5015196;28;20408;-69
2023/05/04 01:12:47;;;;;;;1999.90;999.90;;;10.80;99.90;;;;;;5014800;28;20205;-69
2023/05/04 01:15:14;;;;;;;1999.90;999.90;;;10.70;99.90;;;;;;5014901;28;20445;-68
2023/05/04 01:17:40;;;;;;;1999.90;999.90;;;10.70;99.90;;;;;;5014992;28;20408;-69
2023/05/04 01:20:06;;;;;;;1999.90;999.90;;;10.60;99.90;;;;;;5014799;28;20543;-69
2023/05/04 01:22:32;;;;;;;1999.90;999.90;;;10.50;99.90;;;;;;5014532;28;20200;-69
2023/05/04 01:24:57;;;;;;;1999.90;999.90;;;10.50;99.90;;;;;;5014689;28;20431;-68
2023/05/04 01:27:44;;;;;;;1999.90;999.90;;;10.30;99.90;;;;;;5014837;28;20182;-69
2023/05/04 01:30:29;;;;;;;1999.90;999.90;;;10.40;99.90;;;;;;5014799;28;20167;-69
2023/05/04 01:32:57;;;;;;;1999.90;999.90;;;10.40;99.90;;;;;;5014457;28;20834;-69
2023/05/04 01:35:23;;;;;;;1999.90;999.90;;;10.40;99.90;;;;;;5014593;28;20506;-69
2023/05/04 01:37:48;;;;;;;1999.90;999.90;;;10.30;99.90;;;;;;5014649;28;20443;-69
2023/05/04 01:40:14;;;;;;;1999.90;999.90;;;10.20;99.90;;;;;;5014663;28;20419;-69
2023/05/04 01:42:40;;;;;;;1999.90;999.90;;;10.30;99.90;;;;;;5014316;28;20166;-69
2023/05/04 01:45:06;;;;;;;1999.90;999.90;;;10.30;99.90;;;;;;5014313;28;20573;-69
2023/05/04 01:47:32;;;;;;;1999.90;999.90;;;10.30;99.90;;;;;;5014696;28;20173;-69
2023/05/04 01:49:58;;;;;;;1999.90;999.90;;;10.30;99.90;;;;;;5014482;28;20495;-70
2023/05/04 01:52:23;;;;;;;1999.90;999.90;;;10.40;99.90;;;;;;5014069;28;20829;-69
2023/05/04 01:54:49;;;;;;;1999.90;999.90;;;10.30;99.90;;;;;;5014282;28;20231;-69
2023/05/04 01:57:14;;;;;;;1999.90;999.90;;;10.40;99.90;;;;;;5014270;28;20168;-69
2023/05/04 01:59:40;;;;;;;1999.90;999.90;;;10.20;99.90;;;;;;5014238;28;20239;-69
2023/05/04 02:02:05;;;;;;;1999.90;999.90;;;10.40;99.90;;;;;;5014021;28;20173;-69
2023/05/04 02:04:31;;;;;;;1999.90;999.90;;;10.40;99.90;;;;;;5014096;28;20277;-69
2023/05/04 02:06:56;;;;;;;1999.90;999.90;;;10.30;99.90;;;;;;5014191;28;20173;-69
2023/05/04 02:09:22;;;;;;;1999.90;999.90;;;10.30;99.90;;;;;;5014190;28;20670;-69
2023/05/04 02:11:48;;;;;;;1999.90;999.90;;;10.30;99.90;;;;;;5013648;28;20193;-69
2023/05/04 02:14:13;;;;;;;1999.90;999.90;;;10.40;99.90;;;;;;5013723;28;20758;-69
2023/05/04 02:16:39;;;;;;;1999.90;999.90;;;10.30;99.90;;;;;;5013980;28;20481;-70
2023/05/04 02:19:04;;;;;;;1999.90;999.90;;;10.30;99.90;;;;;;5014055;28;20180;-69
2023/05/04 02:21:30;;;;;;;1999.90;999.90;;;10.30;99.90;;;;;;5013569;28;20178;-69
2023/05/04 02:23:55;;;;;;;1999.90;999.90;;;10.30;99.90;;;;;;5013767;28;20280;-69
2023/05/04 02:26:21;;;;;;;1999.90;999.90;;;10.30;99.90;;;;;;5013994;28;20187;-69
2023/05/04 02:28:46;;;;;;;1999.90;999.90;;;10.30;99.90;;;;;;5013681;28;20165;-69
2023/05/04 02:31:12;;;;;;;1999.90;999.90;;;10.30;99.90;;;;;;5013334;28;20524;-70
2023/05/04 02:33:38;;;;;;;1999.90;999.90;;;10.20;99.90;;;;;;5013600;28;20184;-69
2023/05/04 02:36:03;;;;;;;1999.90;999.90;;;10.00;99.90;;;;;;5012930;28;20170;-69
2023/05/04 02:38:29;;;;;;;1999.90;999.90;;;9.90;99.90;;;;;;5013460;28;20176;-68
2023/05/04 02:40:57;;;;;;;1999.90;999.90;;;9.80;99.90;;;;;;5013250;28;20792;-69
2023/05/04 02:43:22;;;;;;;1999.90;999.90;;;9.60;99.90;;;;;;5013337;28;20176;-69
2023/05/04 02:45:48;;;;;;;1999.90;999.90;;;9.70;99.90;;;;;;5013432;28;20491;-69
2023/05/04 02:48:14;;;;;;;1999.90;999.90;;;9.70;99.90;;;;;;5013352;28;20419;-69
2023/05/04 02:50:39;;;;;;;1999.90;999.90;;;9.60;99.90;;;;;;5013328;28;20699;-69
2023/05/04 02:53:05;;;;;;;1999.90;999.90;;;9.80;99.90;;;;;;5013023;28;20205;-69
2023/05/04 02:55:30;;;;;;;1999.90;999.90;;;9.70;99.90;;;;;;5013174;28;20722;-69
2023/05/04 02:57:57;;;;;;;1999.90;999.90;;;9.60;99.90;;;;;;5013113;28;20259;-69
2023/05/04 03:00:23;;;;;;;1999.90;999.90;;;9.70;99.90;;;;;;5013062;28;20173;-69
2023/05/04 03:02:48;;;;;;;1999.90;999.90;;;9.70;99.90;;;;;;5012827;28;20412;-69
2023/05/04 03:05:14;;;;;;;1999.90;999.90;;;9.80;99.90;;;;;;5012964;28;20856;-68
2023/05/04 03:07:40;;;;;;;1999.90;999.90;;;9.60;99.90;;;;;;5012985;28;20185;-69
2023/05/04 03:10:07;;;;;;;1999.90;999.90;;;9.70;99.90;;;;;;5012965;28;20486;-69
2023/05/04 03:12:33;;;;;;;1999.90;999.90;;;9.70;99.90;;;;;;5012973;28;20197;-70
2023/05/04 03:14:58;;;;;;;1999.90;999.90;;;9.60;99.90;;;;;;5012141;28;20463;-69
2023/05/04 03:17:24;;;;;;;1999.90;999.90;;;9.70;99.90;;;;;;5011987;28;20183;-70
2023/05/04 03:19:49;;;;;;;1999.90;999.90;;;9.70;99.90;;;;;;5012039;28;20177;-69
2023/05/04 03:22:15;;;;;;;1999.90;999.90;;;9.60;99.90;;;;;;5011656;28;20180;-69
2023/05/04 03:24:40;;;;;;;1999.90;999.90;;;9.70;99.90;;;;;;5011857;28;20573;-69
2023/05/04 03:27:06;;;;;;;1999.90;999.90;;;9.70;99.90;;;;;;5011871;28;20223;-69
2023/05/04 03:29:31;;;;;;;1999.90;999.90;;;9.70;99.90;;;;;;5011921;28;20173;-69
2023/05/04 03:31:57;;;;;;;1999.90;999.90;;;9.70;99.90;;;;;;5011460;28;20203;-69
2023/05/04 03:34:23;;;;;;;1999.90;999.90;;;9.80;99.90;;;;;;5011730;28;20603;-69
2023/05/04 03:36:48;;;;;;;1999.90;999.90;;;9.80;99.90;;;;;;5011975;28;20199;-69
2023/05/04 03:39:16;;;;;;;1999.90;999.90;;;9.80;99.90;;;;;;5011724;28;20216;-69
2023/05/04 03:41:41;;;;;;;1999.90;999.90;;;9.70;99.90;;;;;;5011297;28;20191;-69
2023/05/04 03:44:07;;;;;;;1999.90;999.90;;;9.70;99.90;;;;;;5011775;28;20941;-69
2023/05/04 03:46:32;;;;;;;1999.90;999.90;;;9.60;99.90;;;;;;5011664;28;20859;-69
2023/05/04 03:48:58;;;;;;;1999.90;999.90;;;9.50;99.90;;;;;;5011569;28;20173;-69
2023/05/04 03:51:23;;;;;;;1999.90;999.90;;;9.40;99.90;;;;;;5011228;28;20200;-69
2023/05/04 03:53:49;;;;;;;1999.90;999.90;;;9.30;99.90;;;;;;5011281;28;20197;-70
2023/05/04 03:56:14;;;;;;;1999.90;999.90;;;9.30;99.90;;;;;;5011475;28;20740;-69
2023/05/04 03:58:40;;;;;;;1999.90;999.90;;;9.20;99.90;;;;;;5011442;28;20248;-69
2023/05/04 04:01:06;;;;;;;1999.90;999.90;;;9.10;99.90;;;;;;5011200;28;20630;-69
2023/05/04 04:03:31;;;;;;;1999.90;999.90;;;9.00;99.90;;;;;;5011346;28;20202;-69
2023/05/04 04:05:57;;;;;;;1999.90;999.90;;;9.00;99.90;;;;;;5011489;28;20176;-69
2023/05/04 04:08:23;;;;;;;1999.90;999.90;;;9.00;99.90;;;;;;5011302;28;20502;-69
2023/05/04 04:10:49;;;;;;;1999.90;999.90;;;8.90;99.90;;;;;;5011249;28;20835;-69
2023/05/04 04:13:14;;;;;;;1999.90;999.90;;;9.00;99.90;;;;;;4973218;28;1084436;-69
2023/05/04 04:15:43;;;;;;;1999.90;999.90;;;8.80;99.90;;;;;;5012085;28;20206;-68
2023/05/04 04:18:09;;;;;;;1999.90;999.90;;;8.80;99.90;;;;;;5011982;28;20696;-69
2023/05/04 04:20:34;;;;;;;1999.90;999.90;;;8.70;99.90;;;;;;5011989;28;20415;-69
2023/05/04 04:23:00;;;;;;;1999.90;999.90;;;8.80;99.90;;;;;;5011683;28;20184;-68
2023/05/04 04:25:26;;;;;;;1999.90;999.90;;;8.90;99.90;;;;;;5011829;28;20196;-69
2023/05/04 04:27:52;;;;;;;1999.90;999.90;;;8.80;99.90;;;;;;5011931;28;20203;-69
2023/05/04 04:30:17;;;;;;;1999.90;999.90;;;8.90;99.90;;;;;;5012012;28;20219;-69
2023/05/04 04:32:44;;;;;;;1999.90;999.90;;;8.90;99.90;;;;;;5011577;28;20458;-69
2023/05/04 04:35:10;;;;;;;1999.90;999.90;;;8.90;99.90;;;;;;5011851;28;20219;-69
2023/05/04 04:37:35;;;;;;;1999.90;999.90;;;9.00;99.90;;;;;;5011892;28;20406;-69
2023/05/04 04:40:02;;;;;;;1999.90;999.90;;;9.10;99.90;;;;;;5011891;28;20236;-69
2023/05/04 04:42:28;;;;;;;1999.90;999.90;;;9.10;99.90;;;;;;5011496;28;20473;-69
2023/05/04 04:44:53;;;;;;;1999.90;999.90;;;9.10;99.90;;;;;;5011839;28;20438;-70
2023/05/04 04:47:19;;;;;;;1999.90;999.90;;;9.10;99.90;;;;;;5011805;28;20173;-69
2023/05/04 04:49:44;;;;;;;1999.90;999.90;;;9.20;99.90;;;;;;5011808;28;20207;-69
2023/05/04 04:52:10;;;;;;;1999.90;999.90;;;9.20;99.90;;;;;;5011439;28;20193;-69
2023/05/04 04:54:36;;;;;;;1999.90;999.90;;;9.30;99.90;;;;;;5011590;28;20558;-69
2023/05/04 04:57:01;;;;;;;1999.90;999.90;;;9.40;99.90;;;;;;5011915;28;20288;-70
2023/05/04 04:59:27;;;;;;;1999.90;999.90;;;9.50;99.90;;;;;;5012912;28;20534;-68
2023/05/04 05:01:52;;;;;;;1999.90;999.90;;;9.60;99.90;;;;;;5015121;28;20173;-69
2023/05/04 05:04:18;;;;;;;1999.90;999.90;;;9.70;99.90;;;;;;5015259;28;20670;-69
2023/05/04 05:06:44;;;;;;;1999.90;999.90;;;9.70;99.90;;;;;;5015245;28;20184;-69
2023/05/04 05:09:09;;;;;;;1999.90;999.90;;;9.80;99.90;;;;;;5015211;28;20216;-69
2023/05/04 05:11:35;;;;;;;1999.90;999.90;;;9.90;99.90;;;;;;5014818;28;20454;-69
2023/05/04 05:14:01;;;;;;;1999.90;999.90;;;10.10;99.90;;;;;;5014849;28;20288;-69
2023/05/04 05:16:26;;;;;;;1999.90;999.90;;;10.30;99.90;;;;;;5014992;28;20173;-69
2023/05/04 05:18:52;;;;;;;1999.90;999.90;;;10.30;99.90;;;;;;5014860;28;20169;-69
2023/05/04 05:21:17;;;;;;;1999.90;999.90;;;10.40;99.90;;;;;;5014469;28;20640;-69
2023/05/04 05:23:43;;;;;;;1999.90;999.90;;;10.60;99.90;;;;;;5014876;28;20244;-69
2023/05/04 05:26:09;;;;;;;1999.90;999.90;;;10.70;99.90;;;;;;5014944;28;20163;-70
2023/05/04 05:28:34;;;;;;;1999.90;999.90;;;10.80;99.90;;;;;;5014845;28;20715;-69
2023/05/04 05:31:00;;;;;;;1999.90;999.90;;;10.90;99.90;;;;;;5014674;28;20178;-68
2023/05/04 05:33:25;;;;;;;1999.90;999.90;;;11.20;99.90;;;;;;5014682;28;20749;-69
2023/05/04 05:35:51;;;;;;;1999.90;999.90;;;11.10;99.90;;;;;;5014699;28;20239;-70
2023/05/04 05:38:17;;;;;;;1999.90;999.90;;;11.10;99.90;;;;;;5014609;28;20177;-69
2023/05/04 05:40:42;;;;;;;1999.90;999.90;;;11.10;99.90;;;;;;5014644;28;20168;-69
2023/05/04 05:43:08;;;;;;;1999.90;999.90;;;11.20;99.90;;;;;;5014405;28;20256;-70
2023/05/04 05:45:33;;;;;;;1999.90;999.90;;;11.30;99.90;;;;;;5014455;28;20200;-69
2023/05/04 05:47:59;;;;;;;1999.90;999.90;;;11.30;99.90;;;;;;5014551;28;20171;-69
2023/05/04 05:50:25;;;;;;;1999.90;999.90;;;11.40;99.90;;;;;;5014450;28;20172;-70
2023/05/04 05:52:50;;;;;;;1999.90;999.90;;;11.40;99.90;;;;;;5013978;28;20277;-69
2023/05/04 05:55:16;;;;;;;1999.90;999.90;;;11.50;99.90;;;;;;5014389;28;20211;-69
2023/05/04 05:57:41;;;;;;;1999.90;999.90;;;11.50;99.90;;;;;;5014355;28;20168;-69
2023/05/04 06:00:08;;;;;;;1999.90;999.90;;;11.60;99.90;;;;;;5014357;28;20613;-69
2023/05/04 06:02:33;;;;;;;1999.90;999.90;;;11.70;99.90;;;;;;5014044;28;20596;-69
2023/05/04 06:04:59;;;;;;;1999.90;999.90;;;11.80;99.90;;;;;;5014138;28;20451;-69
2023/05/04 06:07:25;;;;;;;1999.90;999.90;;;11.90;99.90;;;;;;5014094;28;20667;-70
2023/05/04 06:09:50;;;;;;;1999.90;999.90;;;11.90;99.90;;;;;;5014251;28;20329;-69
2023/05/04 06:12:16;;;;;;;1999.90;999.90;;;12.00;99.90;;;;;;5012717;28;20277;-69
2023/05/04 06:14:42;;;;;;;1999.90;999.90;;;12.10;99.90;;;;;;5013836;28;20256;-69
2023/05/04 06:17:07;;;;;;;1999.90;999.90;;;12.10;99.90;;;;;;5013942;28;20157;-69
2023/05/04 06:19:35;;;;;;;1999.90;999.90;;;12.20;99.90;;;;;;5013847;28;20497;-68
2023/05/04 06:22:00;;;;;;;1999.90;999.90;;;12.20;99.90;;;;;;5013571;28;20677;-69
2023/05/04 06:24:28;;;;;;;1999.90;999.90;;;12.30;99.90;;;;;;5013808;28;20429;-70
2023/05/04 06:26:54;;;;;;;1999.90;999.90;;;12.40;99.90;;;;;;5013717;28;20195;-69
2023/05/04 06:29:19;;;;;;;1999.90;999.90;;;12.60;99.90;;;;;;5013681;28;20415;-69
2023/05/04 06:31:46;;;;;;;1999.90;999.90;;;12.70;99.90;;;;;;5013382;28;20201;-69
2023/05/04 06:34:11;;;;;;;1999.90;999.90;;;12.80;99.90;;;;;;5013661;28;20858;-69
2023/05/04 06:36:37;;;;;;;1999.90;999.90;;;12.90;99.90;;;;;;5013538;28;20408;-69
2023/05/04 06:39:03;;;;;;;1999.90;999.90;;;13.00;99.90;;;;;;5013741;28;20187;-69
2023/05/04 06:41:28;;;;;;;1999.90;999.90;;;12.90;99.90;;;;;;5013303;28;20161;-69
2023/05/04 06:43:54;;;;;;;1999.90;999.90;;;13.00;99.90;;;;;;5013354;28;20186;-69
2023/05/04 06:46:19;;;;;;;1999.90;999.90;;;13.10;99.90;;;;;;5013375;28;20646;-69
2023/05/04 06:48:45;;;;;;;1999.90;999.90;;;13.10;99.90;;;;;;5013365;28;20189;-70
2023/05/04 06:51:10;;;;;;;1999.90;999.90;;;13.30;99.90;;;;;;5012827;28;20169;-69
2023/05/04 06:53:36;;;;;;;1999.90;999.90;;;13.30;99.90;;;;;;5013128;28;20204;-70
2023/05/04 06:56:02;;;;;;;1999.90;999.90;;;13.40;99.90;;;;;;5012613;28;20275;-69
2023/05/04 06:58:28;;;;;;;1999.90;999.90;;;13.60;99.90;;;;;;5013056;28;20188;-69
2023/05/04 07:00:53;;;;;;;1999.90;999.90;;;13.60;99.90;;;;;;5012943;28;20415;-69
2023/05/04 07:03:19;;;;;;;1999.90;999.90;;;13.60;99.90;;;;;;5013008;28;20258;-69
2023/05/04 07:05:47;;;;;;;1999.90;999.90;;;13.70;99.90;;;;;;5012961;28;20174;-69
2023/05/04 07:08:13;;;;;;;1999.90;999.90;;;13.80;99.90;;;;;;5012905;28;20180;-68
2023/05/04 07:10:38;;;;;;;1999.90;999.90;;;13.80;99.90;;;;;;5013124;28;20410;-68
2023/05/04 07:13:05;;;;;;;1999.90;999.90;;;13.90;99.90;;;;;;5012735;28;20225;-69
2023/05/04 07:15:32;;;;;;;1999.90;999.90;;;14.10;99.90;;;;;;5012725;28;20234;-68
2023/05/04 07:17:58;;;;;;;1999.90;999.90;;;14.10;99.90;;;;;;5012794;28;20402;-68
2023/05/04 07:20:24;;;;;;;1999.90;999.90;;;14.20;99.90;;;;;;5012688;28;20777;-69
2023/05/04 07:22:55;;;;;;;1999.90;999.90;;;14.20;99.90;;;;;;5012249;28;20311;-69
2023/05/04 07:25:21;;;;;;;1999.90;999.90;;;14.30;99.90;;;;;;5012690;28;20437;-68
2023/05/04 07:27:47;;;;;;;1999.90;999.90;;;14.40;99.90;;;;;;5012668;28;20408;-68
2023/05/04 07:30:13;;;;;;;1999.90;999.90;;;14.50;99.90;;;;;;5012758;28;20973;-68
2023/05/04 07:32:38;;;;;;;1999.90;999.90;;;14.50;99.90;;;;;;5012317;28;20448;-69
2023/05/04 07:35:04;;;;;;;1999.90;999.90;;;14.60;99.90;;;;;;5012385;28;20193;-69
2023/05/04 07:37:31;;;;;;;1999.90;999.90;;;14.80;99.90;;;;;;5012555;28;20681;-68
2023/05/04 07:39:59;;;;;;;1999.90;999.90;;;14.90;99.90;;;;;;5012507;28;20454;-69
2023/05/04 07:42:26;;;;;;;1999.90;999.90;;;15.00;99.90;;;;;;5012197;28;20410;-69
2023/05/04 07:44:52;;;;;;;1999.90;999.90;;;15.10;99.90;;;;;;5012348;28;20477;-69
2023/05/04 07:47:18;;;;;;;1999.90;999.90;;;15.20;99.90;;;;;;5012407;28;20423;-69
2023/05/04 07:49:43;;;;;;;1999.90;999.90;;;15.40;99.90;;;;;;5012406;28;20191;-68
2023/05/04 07:52:09;;;;;;;1999.90;999.90;;;15.50;99.90;;;;;;5012171;28;20227;-71
2023/05/04 07:54:35;;;;;;;1999.90;999.90;;;15.60;99.90;;;;;;5012333;28;20190;-70
2023/05/04 07:57:02;;;;;;;1999.90;999.90;;;15.70;99.90;;;;;;5012198;28;20646;-70
2023/05/04 07:59:28;;;;;;;1999.90;999.90;;;15.80;99.90;;;;;;5012214;28;20931;-70
2023/05/04 08:01:54;;;;;;;1999.90;999.90;;;15.80;99.90;;;;;;5011915;28;20422;-70
2023/05/04 08:04:20;;;;;;;1999.90;999.90;;;15.90;99.90;;;;;;5012328;28;20427;-70
2023/05/04 08:06:45;;;;;;;1999.90;999.90;;;16.10;99.90;;;;;;5012325;28;20259;-70
2023/05/04 08:09:11;;;;;;;1999.90;999.90;;;16.20;99.90;;;;;;5012391;28;20503;-70
2023/05/04 08:11:38;;;;;;;1999.90;999.90;;;16.20;99.90;;;;;;5011687;28;20203;-70
2023/05/04 08:14:04;;;;;;;1999.90;999.90;;;16.30;99.90;;;;;;5011917;28;20445;-70
2023/05/04 08:16:30;;;;;;;1999.90;999.90;;;16.40;99.90;;;;;;5012108;28;20774;-70
2023/05/04 08:18:56;;;;;;;1999.90;999.90;;;16.50;99.90;;;;;;5012251;28;20178;-70
2023/05/04 08:21:22;;;;;;;1999.90;999.90;;;16.50;99.90;;;;;;5011832;28;20489;-71
2023/05/04 08:23:48;;;;;;;1999.90;999.90;;;16.60;99.90;;;;;;5012073;28;20536;-71
2023/05/04 08:26:14;;;;;;;1999.90;999.90;;;16.80;99.90;;;;;;5012281;28;20167;-70
2023/05/04 08:28:39;;;;;;;1999.90;999.90;;;16.90;99.90;;;;;;5012005;28;20752;-70
2023/05/04 08:31:06;;;;;;;1999.90;999.90;;;17.00;99.90;;;;;;5011655;28;20176;-69
2023/05/04 08:33:32;;;;;;;1999.90;999.90;;;17.20;99.90;;;;;;5011661;28;20221;-70
2023/05/04 08:35:58;;;;;;;1999.90;999.90;;;17.30;99.90;;;;;;5015877;28;20406;-70
2023/05/04 08:38:23;;;;;;;1999.90;999.90;;;17.40;99.90;;;;;;5015917;28;20714;-74
2023/05/04 08:40:49;;;;;;;1999.90;999.90;;;17.60;99.90;;;;;;5007710;28;20314;-70
2023/05/04 08:43:15;;;;;;;1999.90;999.90;;;17.90;99.90;;;;;;5010706;28;20182;-71
2023/05/04 08:45:41;;;;;;;1999.90;999.90;;;17.90;99.90;;;;;;5011843;28;20570;-70
2023/05/04 08:48:07;;;;;;;1999.90;999.90;;;18.00;99.90;;;;;;5010801;28;20432;-70
2023/05/04 08:50:34;;;;;;;1999.90;999.90;;;18.00;99.90;;;;;;5010914;28;20195;-69
2023/05/04 08:53:04;;;;;;;1999.90;999.90;;;18.10;99.90;;;;;;5011377;28;20466;-68
2023/05/04 08:55:35;;;;;;;1999.90;999.90;;;18.20;99.90;;;;;;5010706;28;20441;-70
2023/05/04 08:58:04;;;;;;;1999.90;999.90;;;18.40;99.90;;;;;;5010784;28;20421;-71
2023/05/04 09:00:32;;;;;;;1999.90;999.90;;;18.60;99.90;;;;;;5010637;28;20468;-71
2023/05/04 09:03:02;;;;;;;1999.90;999.90;;;18.80;99.90;;;;;;5010591;28;20426;-71
2023/05/04 09:05:28;;;;;;;1999.90;999.90;;;18.80;99.90;;;;;;5011020;28;20438;-70
2023/05/04 09:07:54;;;;;;;1999.90;999.90;;;19.00;99.90;;;;;;5010595;28;20832;-71
2023/05/04 09:10:19;;;;;;;1999.90;999.90;;;19.00;99.90;;;;;;5010950;28;20426;-70
2023/05/04 09:12:46;;;;;;;1999.90;999.90;;;19.10;99.90;;;;;;5010759;28;20299;-69
2023/05/04 09:15:18;;;;;;;1999.90;999.90;;;19.20;99.90;;;;;;5010229;28;20221;-69
2023/05/04 09:18:05;;;;;;;1999.90;999.90;;;19.30;99.90;;;;;;5010176;28;20419;-69
2023/05/04 09:20:43;;;;;;;1999.90;999.90;;;19.40;99.90;;;;;;5010028;28;20923;-69
2023/05/04 09:23:11;;;;;;;1999.90;999.90;;;19.50;99.90;;;;;;5009590;28;20415;-69
2023/05/04 09:25:47;;;;;;;1999.90;999.90;;;19.60;99.90;;;;;;5009829;28;20401;-69
2023/05/04 09:28:14;;;;;;;1999.90;999.90;;;19.60;99.90;;;;;;5008456;28;20415;-69
2023/05/04 09:30:40;;;;;;;1999.90;999.90;;;19.60;99.90;;;;;;5008293;28;20426;-69
2023/05/04 09:33:05;;;;;;;1999.90;999.90;;;19.60;99.50;;;;;;5007736;28;20466;-69
2023/05/04 09:35:31;;;;;;;1999.90;999.90;;;19.70;99.90;;;;;;5007293;28;20569;-70
2023/05/04 09:37:57;;;;;;;1999.90;999.90;;;19.80;99.90;;;;;;5007121;28;20271;-69
2023/05/04 09:40:35;;;;;;;1999.90;999.90;;;19.80;99.90;;;;;;5005321;28;20184;-70
2023/05/04 09:43:01;;;;;;;1999.90;999.90;;;20.00;99.90;;;;;;5006063;28;20395;-70
2023/05/04 09:45:37;;;;;;;1999.90;999.90;;;20.10;99.30;;;;;;5016328;28;20498;-71
2023/05/04 09:48:20;;;;;;;1999.90;999.90;;;20.20;99.60;;;;;;5031640;28;20189;-69
2023/05/04 09:50:53;;;;;;;1999.90;999.90;;;20.20;98.50;;;;;;5026422;28;20880;-69
2023/05/04 09:53:29;;;;;;;1999.90;999.90;;;20.20;98.20;;;;;;5028223;28;20954;-71
2023/05/04 09:55:57;;;;;;;1999.90;999.90;;;20.20;98.60;;;;;;5031067;28;20421;-70
2023/05/04 09:58:24;;;;;;;1999.90;999.90;;;20.30;98.10;;;;;;5030676;28;20506;-68
2023/05/04 10:00:54;;;;;;;1999.90;999.90;;;20.40;97.90;;;;;;5027682;28;20508;-68
2023/05/04 10:03:23;;;;;;;1999.90;999.90;;;20.50;97.60;;;;;;5020447;28;21197;-69
2023/05/04 10:05:49;;;;;;;1999.90;999.90;;;20.60;99.00;;;;;;5014713;28;20873;-69
2023/05/04 10:08:16;;;;;;;1999.90;999.90;;;20.80;97.00;;;;;;5024704;28;20409;-69
2023/05/04 10:10:42;;;;;;;1999.90;999.90;;;21.00;98.70;;;;;;5031086;28;20845;-69
2023/05/04 10:13:08;;;;;;;1999.90;999.90;;;21.20;96.80;;;;;;5031936;28;20445;-68
2023/05/04 10:15:36;;;;;;;1999.90;999.90;;;21.50;97.70;;;;;;5029809;28;20452;-68
2023/05/04 10:18:04;;;;;;;1999.90;999.90;;;21.50;91.40;;;;;;5026085;28;20543;-69
2023/05/04 10:20:39;;;;;;;1999.90;999.90;;;21.50;87.10;;;;;;5015509;28;20409;-69
2023/05/04 10:23:23;;;;;;;1999.90;999.90;;;21.50;91.20;;;;;;5016982;28;20446;-69
2023/05/04 10:26:16;;;;;;;1999.90;999.90;;;21.70;90.00;;;;;;5011828;28;20513;-69
2023/05/04 10:29:08;;;;;;;1999.90;999.90;;;21.70;75.90;;;;;;5012530;28;20362;-69
2023/05/04 10:31:41;;;;;;;1999.90;999.90;;;21.70;73.10;;;;;;5003021;28;20461;-69
2023/05/04 10:34:07;;;;;;;1999.90;999.90;;;21.90;68.50;;;;;;5023489;28;20432;-69
2023/05/04 10:36:37;;;;;;;1999.90;999.90;;;22.00;62.10;;;;;;5031939;28;20816;-69
2023/05/04 10:39:04;;;;;;;1999.90;999.90;;;21.90;58.00;;;;;;5031779;28;20397;-69
2023/05/04 10:41:31;;;;;;;1999.90;999.90;;;22.00;55.60;;;;;;5031195;28;20429;-69
2023/05/04 10:44:04;;;;;;;1999.90;999.90;;;22.10;52.20;;;;;;5031746;28;20426;-69
2023/05/04 10:46:30;;;;;;;1999.90;999.90;;;21.90;57.60;;;;;;5031151;28;20414;-69
2023/05/04 10:48:56;;;;;;;1999.90;999.90;;;22.00;59.80;;;;;;5031579;28;20513;-69
2023/05/04 10:51:25;;;;;;;1999.90;999.90;;;22.00;56.50;;;;;;5031189;28;20860;-69
2023/05/04 10:53:51;;;;;;;1999.90;999.90;;;22.00;54.40;;;;;;5019363;28;20196;-69
2023/05/04 10:56:27;;;;;;;1999.90;999.90;;;22.20;50.50;;;;;;5019811;28;20506;-69
2023/05/04 10:58:53;;;;;;;1999.90;999.90;;;22.30;55.10;;;;;;5011597;28;20565;-69
2023/05/04 11:01:20;;;;;;;1999.90;999.90;;;22.50;52.70;;;;;;5010616;28;20426;-69
2023/05/04 11:03:47;;;;;;;1999.90;999.90;;;22.50;45.60;;;;;;5011209;28;20413;-70
2023/05/04 11:06:23;;;;;;;1999.90;999.90;;;22.70;55.10;;;;;;5018748;28;20410;-69
2023/05/04 11:08:58;;;;;;;1999.90;999.90;;;22.80;48.30;;;;;;5011791;28;20415;-70
2023/05/04 11:11:25;;;;;;;1999.90;999.90;;;22.80;44.10;;;;;;5011106;28;20402;-69
2023/05/04 11:13:51;;;;;;;1999.90;999.90;;;22.90;43.40;;;;;;5011201;28;20428;-70
2023/05/04 11:16:24;;;;;;;1999.90;999.90;;;23.10;44.90;;;;;;5010890;28;20371;-69
2023/05/04 11:18:50;;;;;;;1999.90;999.90;;;23.10;43.90;;;;;;5011294;28;20408;-70
2023/05/04 11:21:28;;;;;;;1999.90;999.90;;;23.10;45.10;;;;;;5010773;28;20397;-68
2023/05/04 11:23:58;;;;;;;1999.90;999.90;;;23.40;43.90;;;;;;5010472;28;20192;-70
2023/05/04 11:26:24;;;;;;;1999.90;999.90;;;23.70;43.40;;;;;;5011371;28;20379;-70
2023/05/04 11:28:50;;;;;;;1999.90;999.90;;;23.90;38.90;;;;;;5011202;28;20404;-70
2023/05/04 11:31:17;;;;;;;1999.90;999.90;;;24.00;37.50;;;;;;5010324;28;20379;-70
2023/05/04 11:33:48;;;;;;;1999.90;999.90;;;24.00;39.60;;;;;;5010686;28;20622;-70
2023/05/04 11:36:14;;;;;;;1999.90;999.90;;;24.30;41.70;;;;;;5011214;28;20411;-70
2023/05/04 11:38:40;;;;;;;1999.90;999.90;;;24.40;37.80;;;;;;5010619;28;20383;-70
2023/05/04 11:41:06;;;;;;;1999.90;999.90;;;24.50;38.40;;;;;;5010441;28;20463;-70
2023/05/04 11:43:33;;;;;;;1999.90;999.90;;;24.50;36.20;;;;;;5010386;28;20172;-70
2023/05/04 11:45:59;;;;;;;1999.90;999.90;;;24.60;37.70;;;;;;5010495;28;20423;-70
2023/05/04 11:48:26;;;;;;;1999.90;999.90;;;24.80;35.50;;;;;;5010987;28;20389;-70
2023/05/04 11:50:53;;;;;;;1999.90;999.90;;;24.90;31.30;;;;;;5010328;28;20411;-70
2023/05/04 11:53:21;;;;;;;1999.90;999.90;;;24.90;27.60;;;;;;5010201;28;20521;-70
2023/05/04 11:55:47;;;;;;;1999.90;999.90;;;24.90;31.10;;;;;;5010549;28;20419;-70
2023/05/04 11:58:13;;;;;;;1999.90;999.90;;;24.90;30.30;;;;;;5010508;28;20379;-70
2023/05/04 12:00:42;;;;;;;1999.90;999.90;;;25.20;26.70;;;;;;5010229;28;20412;-70